createdAt,value
2018-06-30T00:02:02.038Z,99.90
2018-06-30T00:04:30.432Z,99.90
2018-06-30T00:06:59.179Z,99.90
2018-06-30T00:09:27.414Z,99.90
2018-06-30T00:14:24.789Z,99.90
2018-06-30T00:16:53.047Z,99.90
2018-06-30T00:19:21.135Z,99.90
2018-06-30T00:24:18.318Z,99.90
2018-06-30T00:26:47.954Z,99.90
2018-06-30T00:29:16.153Z,99.90
2018-06-30T00:31:44.986Z,99.90
2018-06-30T00:36:43.265Z,99.90
2018-06-30T00:39:11.496Z,99.90
2018-06-30T00:41:40.413Z,99.90
2018-06-30T00:44:08.692Z,99.90
2018-06-30T00:46:37.418Z,99.90
2018-06-30T00:51:34.240Z,99.90
2018-06-30T00:54:03.268Z,99.90
2018-06-30T00:59:01.088Z,99.90
2018-06-30T01:01:30.180Z,99.90
2018-06-30T01:03:58.371Z,99.90
2018-06-30T01:06:27.186Z,99.90
2018-06-30T01:08:55.787Z,99.90
2018-06-30T01:11:24.346Z,99.90
2018-06-30T01:13:52.923Z,99.90
2018-06-30T01:16:22.065Z,99.90
2018-06-30T01:23:47.317Z,99.90
2018-06-30T01:26:15.648Z,99.90
2018-06-30T01:28:45.020Z,99.90
2018-06-30T01:31:13.451Z,99.90
2018-06-30T01:38:38.764Z,99.90
2018-06-30T01:41:06.887Z,99.90
2018-06-30T01:46:03.606Z,99.90
2018-06-30T01:51:00.832Z,99.90
2018-06-30T01:53:29.395Z,99.90
2018-06-30T01:55:57.963Z,99.90
2018-06-30T02:00:55.470Z,99.90
2018-06-30T02:03:23.919Z,99.90
2018-06-30T02:08:22.070Z,99.90
2018-06-30T02:10:51.093Z,99.90
2018-06-30T02:13:19.861Z,99.90
2018-06-30T02:15:48.939Z,99.90
2018-06-30T02:18:17.106Z,99.90
2018-06-30T02:20:45.279Z,99.90
2018-06-30T02:23:15.019Z,99.90
2018-06-30T02:25:45.032Z,99.90
2018-06-30T02:28:13.699Z,99.90
2018-06-30T02:30:42.721Z,99.90
2018-06-30T02:33:11.617Z,99.90
2018-06-30T02:35:39.938Z,99.90
2018-06-30T02:38:08.934Z,99.90
2018-06-30T02:40:37.238Z,99.90
2018-06-30T02:43:05.369Z,99.90
2018-06-30T02:48:02.678Z,99.90
2018-06-30T02:50:30.770Z,99.90
2018-06-30T02:53:00.382Z,99.90
2018-06-30T02:55:29.231Z,99.90
2018-06-30T02:57:57.859Z,99.90
2018-06-30T03:00:26.573Z,99.90
2018-06-30T03:05:24.113Z,99.90
2018-06-30T03:07:53.626Z,99.90
2018-06-30T03:10:22.597Z,99.90
2018-06-30T03:12:51.101Z,99.90
2018-06-30T03:15:19.518Z,99.90
2018-06-30T03:20:16.421Z,99.90
2018-06-30T03:22:44.830Z,99.90
2018-06-30T03:25:13.192Z,99.90
2018-06-30T03:27:42.130Z,99.90
2018-06-30T03:32:39.237Z,99.90
2018-06-30T03:35:07.685Z,99.90
2018-06-30T03:37:35.860Z,99.90
2018-06-30T03:40:04.067Z,99.90
2018-06-30T03:42:33.570Z,99.90
2018-06-30T03:45:01.886Z,99.90
2018-06-30T03:47:30.414Z,99.90
2018-06-30T03:49:59.465Z,99.90
2018-06-30T03:52:28.881Z,99.90
2018-06-30T03:54:57.106Z,99.90
2018-06-30T03:57:26.966Z,99.90
2018-06-30T03:59:55.998Z,99.90
2018-06-30T04:02:25.146Z,99.90
2018-06-30T04:04:53.758Z,99.90
2018-06-30T04:09:50.338Z,99.90
2018-06-30T04:12:19.066Z,99.90
2018-06-30T04:14:47.928Z,99.90
2018-06-30T04:17:16.102Z,99.90
2018-06-30T04:19:45.778Z,99.90
2018-06-30T04:22:13.934Z,99.90
2018-06-30T04:24:43.062Z,99.90
2018-06-30T04:29:39.409Z,99.90
2018-06-30T04:32:07.709Z,99.90
2018-06-30T04:34:36.821Z,99.90
2018-06-30T04:37:06.818Z,99.90
2018-06-30T04:39:35.531Z,99.90
2018-06-30T04:42:03.694Z,99.90
2018-06-30T04:44:32.004Z,99.90
2018-06-30T04:47:00.970Z,99.90
2018-06-30T04:49:29.546Z,99.90
2018-06-30T04:51:58.582Z,99.90
2018-06-30T04:54:26.990Z,99.90
2018-06-30T04:56:56.767Z,99.90
2018-06-30T04:59:25.878Z,99.90
2018-06-30T05:04:23.761Z,99.90
2018-06-30T05:09:21.058Z,99.90
2018-06-30T05:11:50.991Z,99.90
2018-06-30T05:14:19.851Z,99.90
2018-06-30T05:19:15.938Z,99.90
2018-06-30T05:21:45.846Z,99.90
2018-06-30T05:24:14.755Z,99.90
2018-06-30T05:26:44.355Z,99.90
2018-06-30T05:29:13.029Z,99.90
2018-06-30T05:31:41.378Z,99.90
2018-06-30T05:36:38.338Z,99.90
2018-06-30T05:39:07.925Z,99.90
2018-06-30T05:41:36.377Z,99.90
2018-06-30T05:44:04.842Z,99.90
2018-06-30T05:46:33.379Z,99.90
2018-06-30T05:49:02.215Z,99.90
2018-06-30T05:51:30.957Z,99.90
2018-06-30T05:56:27.145Z,99.90
2018-06-30T05:58:55.914Z,99.90
2018-06-30T06:01:24.210Z,99.80
2018-06-30T06:03:52.393Z,99.60
2018-06-30T06:06:22.118Z,99.00
2018-06-30T06:08:50.993Z,99.30
2018-06-30T06:11:20.022Z,98.60
2018-06-30T06:13:49.484Z,99.50
2018-06-30T06:16:18.071Z,99.00
2018-06-30T06:18:46.370Z,99.90
2018-06-30T06:21:14.810Z,98.60
2018-06-30T06:23:42.915Z,98.80
2018-06-30T06:26:10.978Z,98.30
2018-06-30T06:28:40.161Z,98.50
2018-06-30T06:31:09.987Z,98.00
2018-06-30T06:33:38.173Z,96.70
2018-06-30T06:36:07.194Z,96.40
2018-06-30T06:38:36.034Z,96.60
2018-06-30T06:41:04.324Z,95.60
2018-06-30T06:43:32.805Z,95.90
2018-06-30T06:46:01.838Z,93.80
2018-06-30T06:48:31.715Z,93.40
2018-06-30T06:51:00.026Z,92.30
2018-06-30T06:53:29.206Z,92.00
2018-06-30T06:55:57.622Z,94.40
2018-06-30T06:58:26.182Z,91.00
2018-06-30T07:00:54.739Z,91.00
2018-06-30T07:03:23.597Z,89.70
2018-06-30T07:08:20.751Z,80.80
2018-06-30T07:10:50.440Z,79.30
2018-06-30T07:13:18.754Z,77.90
2018-06-30T07:15:47.269Z,73.10
2018-06-30T07:18:15.559Z,76.50
2018-06-30T07:20:45.468Z,72.80
2018-06-30T07:23:13.799Z,71.00
2018-06-30T07:28:10.325Z,67.70
2018-06-30T07:30:39.398Z,72.30
2018-06-30T07:38:04.378Z,65.10
2018-06-30T07:45:30.722Z,63.30
2018-06-30T07:47:59.688Z,63.30
2018-06-30T07:50:28.750Z,58.60
2018-06-30T07:52:56.957Z,55.50
2018-06-30T07:55:26.360Z,61.20
2018-06-30T07:57:54.662Z,54.40
2018-06-30T08:00:22.884Z,56.10
2018-06-30T08:05:21.340Z,51.20
2018-06-30T08:07:49.714Z,50.20
2018-06-30T08:10:18.307Z,55.90
2018-06-30T08:12:46.633Z,52.90
2018-06-30T08:17:44.441Z,54.20
2018-06-30T08:20:13.366Z,55.10
2018-06-30T08:22:42.186Z,51.40
2018-06-30T08:25:10.988Z,56.10
2018-06-30T08:27:39.704Z,50.10
2018-06-30T08:30:08.286Z,53.70
2018-06-30T08:32:38.106Z,52.20
2018-06-30T08:35:07.402Z,52.20
2018-06-30T08:37:35.478Z,50.20
2018-06-30T08:40:04.747Z,52.90
2018-06-30T08:49:58.813Z,50.20
2018-06-30T08:52:27.315Z,51.20
2018-06-30T08:54:55.485Z,51.90
2018-06-30T08:57:24.422Z,50.50
2018-06-30T09:02:21.367Z,50.00
2018-06-30T09:04:50.111Z,50.20
2018-06-30T09:07:18.442Z,49.10
2018-06-30T09:09:46.587Z,47.50
2018-06-30T09:12:15.248Z,47.70
2018-06-30T09:14:44.132Z,48.00
2018-06-30T09:17:12.397Z,50.20
2018-06-30T09:19:40.519Z,48.80
2018-06-30T09:22:09.118Z,47.10
2018-06-30T09:29:35.386Z,45.30
2018-06-30T09:32:03.507Z,44.60
2018-06-30T09:34:33.422Z,42.90
2018-06-30T09:37:01.956Z,44.40
2018-06-30T09:39:30.635Z,44.00
2018-06-30T09:41:58.910Z,43.20
2018-06-30T09:44:27.251Z,46.60
2018-06-30T09:46:55.558Z,48.60
2018-06-30T09:49:23.701Z,46.70
2018-06-30T09:51:54.580Z,46.50
2018-06-30T09:54:22.852Z,43.70
2018-06-30T09:56:52.853Z,48.40
2018-06-30T09:59:21.173Z,49.90
2018-06-30T10:04:17.405Z,46.60
2018-06-30T10:06:45.751Z,46.00
2018-06-30T10:09:14.390Z,48.90
2018-06-30T10:11:43.418Z,45.50
2018-06-30T10:14:12.153Z,49.20
2018-06-30T10:16:40.440Z,47.40
2018-06-30T10:19:09.251Z,48.30
2018-06-30T10:21:38.187Z,47.00
2018-06-30T10:24:06.551Z,48.60
2018-06-30T10:26:34.682Z,53.50
2018-06-30T10:29:04.470Z,53.20
2018-06-30T10:31:33.939Z,52.70
2018-06-30T10:34:02.183Z,52.90
2018-06-30T10:38:59.201Z,43.80
2018-06-30T10:41:28.404Z,44.90
2018-06-30T10:43:58.121Z,49.30
2018-06-30T10:46:26.347Z,47.90
2018-06-30T10:48:54.674Z,44.30
2018-06-30T10:51:24.098Z,47.20
2018-06-30T10:53:52.435Z,50.60
2018-06-30T10:56:21.146Z,48.70
2018-06-30T10:58:50.021Z,48.40
2018-06-30T11:01:18.418Z,50.20
2018-06-30T11:03:46.929Z,51.50
2018-06-30T11:06:15.378Z,51.90
2018-06-30T11:08:44.466Z,53.30
2018-06-30T11:11:13.322Z,47.80
2018-06-30T11:13:42.161Z,45.60
2018-06-30T11:16:10.311Z,45.40
2018-06-30T11:18:39.707Z,46.30
2018-06-30T11:21:07.981Z,43.80
2018-06-30T11:23:36.944Z,41.60
2018-06-30T11:28:34.225Z,44.50
2018-06-30T11:34:37.202Z,40.70
2018-06-30T11:39:35.532Z,43.20
2018-06-30T11:42:04.566Z,41.40
2018-06-30T11:44:32.898Z,44.80
2018-06-30T11:49:29.953Z,44.70
2018-06-30T11:54:27.553Z,42.10
2018-06-30T11:56:56.183Z,43.00
2018-06-30T11:59:25.047Z,42.80
2018-06-30T12:01:53.735Z,46.40
2018-06-30T12:04:23.862Z,45.50
2018-06-30T12:06:52.054Z,47.50
2018-06-30T12:09:21.493Z,46.30
2018-06-30T12:11:49.631Z,45.60
2018-06-30T12:14:18.194Z,45.50
2018-06-30T12:16:47.028Z,43.60
2018-06-30T12:19:15.882Z,41.60
2018-06-30T12:21:44.274Z,39.50
2018-06-30T12:24:12.842Z,40.60
2018-06-30T12:26:42.631Z,39.60
2018-06-30T12:29:10.930Z,41.80
2018-06-30T12:31:40.982Z,44.30
2018-06-30T12:34:09.213Z,43.50
2018-06-30T12:36:37.831Z,41.30
2018-06-30T12:39:07.736Z,38.80
2018-06-30T12:41:36.120Z,41.30
2018-06-30T12:44:04.897Z,40.80
2018-06-30T12:46:34.013Z,41.30
2018-06-30T12:49:02.830Z,40.60
2018-06-30T12:51:31.526Z,41.30
2018-06-30T12:56:28.242Z,42.70
2018-06-30T12:58:56.604Z,41.80
2018-06-30T13:01:25.176Z,41.20
2018-06-30T13:03:54.887Z,43.20
2018-06-30T13:06:23.918Z,42.60
2018-06-30T13:08:53.310Z,46.00
2018-06-30T13:11:21.655Z,49.20
2018-06-30T13:18:47.771Z,49.80
2018-06-30T13:21:15.869Z,48.60
2018-06-30T13:28:41.563Z,43.10
2018-06-30T13:31:10.661Z,46.20
2018-06-30T13:33:38.905Z,47.10
2018-06-30T13:36:07.191Z,48.60
2018-06-30T13:38:37.114Z,51.50
2018-06-30T13:41:05.465Z,51.80
2018-06-30T13:46:01.768Z,50.80
2018-06-30T13:48:29.977Z,47.80
2018-06-30T13:50:58.956Z,48.10
2018-06-30T13:53:27.646Z,46.50
2018-06-30T13:55:56.577Z,44.50
2018-06-30T13:58:25.496Z,45.70
2018-06-30T14:05:51.487Z,50.00
2018-06-30T14:08:19.687Z,51.50
2018-06-30T14:13:17.372Z,53.00
2018-06-30T14:15:45.918Z,50.40
2018-06-30T14:18:14.207Z,50.80
2018-06-30T14:20:42.859Z,52.00
2018-06-30T14:28:09.166Z,50.90
2018-06-30T14:30:38.781Z,48.60
2018-06-30T14:33:06.943Z,47.60
2018-06-30T14:35:35.198Z,48.40
2018-06-30T14:38:03.610Z,51.50
2018-06-30T14:40:31.755Z,49.60
2018-06-30T14:43:00.413Z,49.70
2018-06-30T14:45:28.605Z,50.40
2018-06-30T14:47:57.147Z,50.00
2018-06-30T14:50:25.490Z,50.60
2018-06-30T14:52:53.652Z,51.00
2018-06-30T14:55:22.302Z,48.80
2018-06-30T15:02:48.618Z,51.90
2018-06-30T15:05:18.694Z,49.90
2018-06-30T15:07:47.072Z,52.50
2018-06-30T15:12:43.493Z,50.40
2018-06-30T15:15:11.987Z,49.90
2018-06-30T15:20:08.702Z,49.20
2018-06-30T15:22:36.940Z,49.10
2018-06-30T15:25:05.467Z,51.60
2018-06-30T15:27:34.469Z,52.20
2018-06-30T15:30:02.631Z,52.40
2018-06-30T15:32:31.954Z,50.00
2018-06-30T15:35:00.466Z,51.20
2018-06-30T15:39:57.821Z,48.50
2018-06-30T15:42:26.679Z,48.60
2018-06-30T15:44:54.834Z,48.30
2018-06-30T15:47:23.302Z,51.80
2018-06-30T15:49:51.613Z,51.70
2018-06-30T15:52:20.200Z,50.00
2018-06-30T15:54:48.965Z,48.20
2018-06-30T15:57:17.706Z,48.80
2018-06-30T15:59:46.851Z,49.50
2018-06-30T16:02:15.129Z,48.70
2018-06-30T16:04:44.122Z,49.60
2018-06-30T16:07:12.728Z,50.70
2018-06-30T16:09:41.550Z,48.40
2018-06-30T16:12:09.881Z,48.50
2018-06-30T16:14:38.572Z,49.20
2018-06-30T16:17:07.858Z,49.10
2018-06-30T16:19:36.428Z,49.50
2018-06-30T16:22:05.155Z,48.60
2018-06-30T16:24:33.785Z,48.20
2018-06-30T16:29:30.930Z,49.00
2018-06-30T16:31:59.073Z,49.70
2018-06-30T16:34:27.685Z,48.60
2018-06-30T16:41:52.585Z,47.60
2018-06-30T16:44:21.931Z,49.30
2018-06-30T16:46:50.771Z,46.70
2018-06-30T16:49:19.780Z,48.10
2018-06-30T16:51:47.939Z,45.90
2018-06-30T16:54:17.167Z,48.00
2018-06-30T16:56:45.530Z,47.40
2018-06-30T16:59:14.357Z,45.60
2018-06-30T17:01:43.906Z,46.40
2018-06-30T17:04:12.417Z,46.90
2018-06-30T17:06:42.866Z,48.70
2018-06-30T17:09:14.310Z,47.70
2018-06-30T17:11:43.008Z,50.10
2018-06-30T17:14:11.713Z,48.50
2018-06-30T17:21:36.911Z,50.30
2018-06-30T17:24:06.483Z,49.80
2018-06-30T17:26:35.532Z,49.60
2018-06-30T17:29:03.766Z,49.90
2018-06-30T17:31:32.520Z,52.10
2018-06-30T17:34:01.299Z,51.70
2018-06-30T17:36:29.677Z,51.70
2018-06-30T17:38:58.450Z,50.80
2018-06-30T17:41:26.982Z,50.90
2018-06-30T17:43:55.818Z,51.00
2018-06-30T17:46:24.889Z,50.30
2018-06-30T17:48:53.113Z,50.80
2018-06-30T17:51:22.035Z,51.60
2018-06-30T17:56:19.578Z,50.80
2018-06-30T18:01:16.342Z,51.90
2018-06-30T18:03:44.463Z,51.40
2018-06-30T18:06:13.754Z,52.10
2018-06-30T18:08:42.307Z,52.90
2018-06-30T18:11:10.414Z,53.20
2018-06-30T18:13:38.675Z,54.60
2018-06-30T18:18:34.982Z,55.50
2018-06-30T18:21:03.263Z,55.00
2018-06-30T18:23:32.105Z,54.90
2018-06-30T18:26:01.070Z,55.30
2018-06-30T18:28:29.775Z,56.80
2018-06-30T18:33:27.870Z,57.50
2018-06-30T18:35:56.932Z,57.70
2018-06-30T18:38:25.501Z,58.60
2018-06-30T18:40:54.166Z,58.70
2018-06-30T18:43:23.401Z,59.90
2018-06-30T18:45:51.674Z,61.10
2018-06-30T18:48:20.192Z,60.60
2018-06-30T18:53:17.311Z,63.00
2018-06-30T18:55:45.476Z,63.30
2018-06-30T18:58:14.278Z,61.90
2018-06-30T19:00:42.390Z,64.00
2018-06-30T19:03:10.961Z,63.10
2018-06-30T19:08:07.087Z,62.90
2018-06-30T19:10:36.071Z,63.30
2018-06-30T19:13:04.485Z,64.20
2018-06-30T19:18:02.215Z,64.50
2018-06-30T19:20:31.222Z,64.90
2018-06-30T19:23:00.149Z,65.40
2018-06-30T19:25:28.869Z,66.50
2018-06-30T19:27:57.883Z,68.50
2018-06-30T19:30:27.937Z,66.20
2018-06-30T19:32:56.297Z,69.70
2018-06-30T19:35:24.942Z,70.50
2018-06-30T19:37:53.651Z,68.20
2018-06-30T19:40:22.263Z,69.60
2018-06-30T19:42:51.149Z,68.80
2018-06-30T19:45:19.517Z,69.40
2018-06-30T19:47:48.375Z,70.80
2018-06-30T19:50:17.194Z,71.70
2018-06-30T19:52:46.977Z,71.00
2018-06-30T19:55:16.111Z,73.10
2018-06-30T19:57:44.995Z,73.10
2018-06-30T20:00:14.054Z,74.60
2018-06-30T20:02:42.825Z,75.60
2018-06-30T20:07:44.846Z,74.20
2018-06-30T20:10:13.127Z,77.90
2018-06-30T20:12:42.345Z,78.70
2018-06-30T20:15:10.701Z,76.60
2018-06-30T20:17:38.973Z,78.70
2018-06-30T20:20:07.750Z,78.70
2018-06-30T20:22:36.925Z,76.40
2018-06-30T20:25:07.023Z,76.80
2018-06-30T20:27:35.965Z,77.70
2018-06-30T20:30:05.075Z,79.70
2018-06-30T20:32:33.553Z,79.30
2018-06-30T20:35:02.150Z,80.50
2018-06-30T20:37:30.338Z,81.00
2018-06-30T20:39:59.334Z,81.80
2018-06-30T20:42:28.622Z,82.00
2018-06-30T20:44:57.657Z,83.90
2018-06-30T20:47:27.284Z,86.10
2018-06-30T20:57:20.626Z,85.70
2018-06-30T20:59:48.861Z,86.00
2018-06-30T21:04:45.190Z,87.80
2018-06-30T21:07:13.287Z,88.70
2018-06-30T21:14:38.987Z,91.40
2018-06-30T21:17:07.074Z,91.30
2018-06-30T22:44:03.965Z,99.90
2018-06-30T22:46:32.434Z,99.80
2018-06-30T22:49:00.685Z,99.90
2018-06-30T22:51:30.374Z,99.90
2018-06-30T22:53:59.436Z,99.90
2018-06-30T22:56:28.231Z,99.90
2018-06-30T22:58:57.994Z,99.90
2018-06-30T23:01:26.149Z,99.90
2018-06-30T23:03:54.292Z,99.90
2018-06-30T23:06:22.815Z,99.90
2018-06-30T23:08:53.286Z,99.90
2018-06-30T23:11:22.585Z,99.90
2018-06-30T23:13:52.008Z,99.90
2018-06-30T23:16:20.386Z,99.90
2018-06-30T23:18:48.893Z,99.90
2018-06-30T23:21:17.465Z,99.90
2018-06-30T23:23:46.954Z,99.90
2018-06-30T23:26:15.405Z,99.90
2018-06-30T23:28:43.558Z,99.90
2018-06-30T23:31:12.254Z,99.90
2018-06-30T23:36:08.702Z,99.90
2018-06-30T23:38:36.794Z,99.90
2018-06-30T23:41:05.117Z,99.90
2018-06-30T23:43:34.162Z,99.90
2018-06-30T23:48:30.409Z,99.90
2018-06-30T23:50:59.369Z,99.90
2018-06-30T23:53:27.733Z,99.90
2018-06-30T23:55:56.609Z,99.90
2018-06-30T23:58:25.014Z,99.90
